Time;durP1;ratioP1;P1;durP2;ratioP2;P2;SDS_P1;SDS_P2;PMS_P1;PMS_P2;Temp;Humidity;BMP_temperature;BMP_pressure;BME280_temperature;BME280_humidity;BME280_pressure;Samples;Min_cycle;Max_cycle;Signal;HPM_P1;HPM_P2
2021/12/01 00:00:06;;;;;;;7.75;5.68;;;;;;;18.84;38.31;100973.66;5053955;28;20386;-78
2021/12/01 00:02:38;;;;;;;7.15;5.70;;;;;;;18.83;38.19;100972.78;5061828;28;20396;-78
2021/12/01 00:05:08;;;;;;;7.15;5.10;;;;;;;18.84;38.24;100971.84;5054307;28;20048;-78
2021/12/01 00:07:37;;;;;;;8.13;5.22;;;;;;;18.85;38.15;100970.84;5055317;28;20049;-78
2021/12/01 00:10:06;;;;;;;6.57;5.43;;;;;;;18.85;38.31;100972.69;5055359;28;20049;-78
2021/12/01 00:12:34;;;;;;;9.05;6.10;;;;;;;18.85;38.20;100965.50;5055202;28;20041;-78
2021/12/01 00:15:04;;;;;;;6.85;5.75;;;;;;;18.86;37.99;100960.97;5053354;28;20055;-78
2021/12/01 00:17:32;;;;;;;7.78;5.55;;;;;;;18.85;38.14;100951.22;5054980;28;20055;-78
2021/12/01 00:20:00;;;;;;;7.50;5.60;;;;;;;18.86;38.08;100961.81;5055268;28;20049;-78
2021/12/01 00:22:27;;;;;;;7.78;5.55;;;;;;;18.86;38.13;100958.28;5054639;28;20056;-78
2021/12/01 00:24:54;;;;;;;9.27;5.43;;;;;;;18.86;38.22;100951.09;5055317;28;20055;-79
2021/12/01 00:27:22;;;;;;;7.95;5.63;;;;;;;18.85;38.11;100933.31;5055269;28;20048;-78
2021/12/01 00:29:50;;;;;;;7.70;5.50;;;;;;;18.86;38.13;100934.16;5053926;28;20052;-78
2021/12/01 00:32:18;;;;;;;9.40;5.20;;;;;;;18.86;38.21;100940.38;5054714;28;20045;-78
2021/12/01 00:34:46;;;;;;;7.00;5.50;;;;;;;18.86;38.22;100943.03;5055521;28;20056;-78
2021/12/01 00:37:13;;;;;;;7.10;5.32;;;;;;;18.87;38.06;100943.91;5054516;28;20040;-79
2021/12/01 00:39:41;;;;;;;8.27;4.97;;;;;;;18.87;37.92;100941.22;5053505;28;20057;-79
2021/12/01 00:42:09;;;;;;;8.90;5.32;;;;;;;18.88;38.16;100940.22;5054419;28;20480;-78
2021/12/01 00:44:36;;;;;;;8.77;6.32;;;;;;;18.89;37.92;100936.59;5037455;28;20080;-78
2021/12/01 00:47:05;;;;;;;6.18;4.97;;;;;;;18.90;37.96;100932.91;5055293;28;20048;-78
2021/12/01 00:49:35;;;;;;;9.20;5.07;;;;;;;18.90;38.06;100933.78;5055211;28;20057;-79
2021/12/01 00:52:03;;;;;;;7.72;5.38;;;;;;;18.89;38.27;100934.75;5053272;28;20409;-78
2021/12/01 00:54:31;;;;;;;9.98;5.15;;;;;;;18.91;38.18;100937.31;5054621;28;20053;-78
2021/12/01 00:56:58;;;;;;;10.35;5.13;;;;;;;18.91;38.16;100943.50;5054634;28;20037;-78
2021/12/01 00:59:26;;;;;;;6.63;5.38;;;;;;;18.91;38.19;100932.78;5055158;28;20049;-78
2021/12/01 01:01:54;;;;;;;9.23;4.78;;;;;;;18.91;38.19;100931.94;5055099;28;20472;-78
2021/12/01 01:04:21;;;;;;;7.80;5.60;;;;;;;18.89;38.21;100934.75;5054872;28;20063;-78
2021/12/01 01:06:49;;;;;;;6.68;4.65;;;;;;;18.92;38.13;100930.94;5053851;28;20053;-78
2021/12/01 01:09:16;;;;;;;7.55;5.18;;;;;;;18.91;37.97;100930.09;5055023;28;20374;-78
2021/12/01 01:20:13;;;;;;;7.03;4.93;;;;;;;18.94;38.04;100945.09;5053537;28;20056;-78
2021/12/01 01:22:41;;;;;;;6.50;5.38;;;;;;;18.94;38.10;100943.28;5052557;28;20497;-78
2021/12/01 01:25:09;;;;;;;5.55;4.90;;;;;;;18.94;38.06;100945.09;5053982;28;20045;-77
2021/12/01 01:27:36;;;;;;;11.43;5.32;;;;;;;18.95;38.02;100944.13;5054525;28;20056;-79
2021/12/01 01:30:05;;;;;;;6.63;4.75;;;;;;;18.95;38.02;100939.59;5053954;28;20049;-79
2021/12/01 01:32:34;;;;;;;6.85;5.13;;;;;;;18.96;37.85;100941.31;5054146;28;20053;-78
2021/12/01 01:35:01;;;;;;;7.63;5.50;;;;;;;18.96;37.80;100935.13;5053996;28;20049;-78
2021/12/01 01:37:29;;;;;;;9.57;5.38;;;;;;;18.96;37.95;100929.75;5054434;28;20052;-79
2021/12/01 01:39:56;;;;;;;5.82;4.53;;;;;;;18.97;37.79;100915.34;5052651;28;20407;-79
2021/12/01 01:42:24;;;;;;;6.65;4.45;;;;;;;18.96;37.94;100919.88;5054182;28;20049;-79
2021/12/01 01:44:51;;;;;;;6.55;4.22;;;;;;;18.98;37.78;100920.56;5053992;28;20057;-79
2021/12/01 01:47:20;;;;;;;8.82;5.10;;;;;;;18.99;37.80;100922.28;5053698;28;20045;-79
2021/12/01 01:50:00;;;;;;;5.60;4.65;;;;;;;18.98;37.76;100915.22;5054121;28;20376;-79
2021/12/01 01:52:28;;;;;;;6.57;4.20;;;;;;;18.99;37.58;100914.22;5052562;28;20052;-79
2021/12/01 01:54:56;;;;;;;7.47;4.90;;;;;;;19.01;37.78;100911.44;5052470;28;20056;-79
2021/12/01 01:57:24;;;;;;;7.35;4.93;;;;;;;18.99;37.65;100911.53;5053524;28;20053;-78
2021/12/01 01:59:51;;;;;;;6.68;4.43;;;;;;;19.00;37.86;100905.22;5053689;28;20071;-78
2021/12/01 02:02:19;;;;;;;6.97;4.25;;;;;;;19.01;37.67;100900.69;5053689;28;20049;-78
2021/12/01 02:04:46;;;;;;;6.57;4.68;;;;;;;19.01;37.74;100900.69;5052331;28;20480;-78
2021/12/01 02:07:14;;;;;;;6.10;4.40;;;;;;;19.00;37.86;100891.81;5051965;28;20500;-78
2021/12/01 02:09:43;;;;;;;5.18;4.15;;;;;;;19.00;37.88;100899.84;5052264;28;20048;-78
2021/12/01 02:12:10;;;;;;;6.95;5.07;;;;;;;19.01;37.81;100888.13;5053856;28;20067;-78
2021/12/01 02:14:38;;;;;;;6.55;4.22;;;;;;;19.01;37.86;100881.91;5052551;28;20044;-78
2021/12/01 02:17:05;;;;;;;6.13;4.10;;;;;;;19.00;37.89;100873.03;5053697;28;20481;-78
2021/12/01 02:19:37;;;;;;;5.70;4.13;;;;;;;19.00;38.06;100870.34;5053673;28;20056;-78
2021/12/01 02:22:04;;;;;;;7.90;5.03;;;;;;;19.00;38.24;100867.66;5054030;28;20052;-78
2021/12/01 02:24:32;;;;;;;6.00;4.10;;;;;;;18.99;38.03;100868.59;5053739;28;20075;-78
2021/12/01 02:26:59;;;;;;;6.93;4.63;;;;;;;19.00;38.27;100866.81;5068896;28;20053;-78
2021/12/01 02:29:27;;;;;;;4.93;4.03;;;;;;;19.00;38.22;100869.50;5053808;28;20061;-78
2021/12/01 02:31:55;;;;;;;6.72;4.20;;;;;;;19.00;38.39;100872.19;5053091;28;20488;-78
2021/12/01 02:34:26;;;;;;;6.57;3.88;;;;;;;18.99;38.33;100860.56;5053301;28;20045;-78
2021/12/01 02:36:57;;;;;;;5.00;4.07;;;;;;;18.98;38.50;100852.66;5052973;28;20047;-78
2021/12/01 02:39:24;;;;;;;7.38;4.95;;;;;;;18.98;38.46;100849.97;5052522;28;20057;-78
2021/12/01 02:41:55;;;;;;;7.07;4.50;;;;;;;18.98;38.66;100852.66;5051760;28;20053;-78
2021/12/01 02:44:24;;;;;;;7.05;4.55;;;;;;;18.98;38.54;100856.19;5053728;28;20052;-78
2021/12/01 02:46:51;;;;;;;5.40;4.18;;;;;;;18.98;38.53;100858.03;5052423;28;20048;-78
2021/12/01 02:49:24;;;;;;;5.97;4.10;;;;;;;18.96;38.57;100850.13;5053414;28;20060;-77
2021/12/01 02:51:54;;;;;;;5.70;4.00;;;;;;;18.97;38.53;100853.63;5068550;28;20060;-78
2021/12/01 02:54:23;;;;;;;8.95;4.40;;;;;;;18.97;38.71;100850.97;5051797;28;20215;-78
2021/12/01 02:56:52;;;;;;;5.93;3.55;;;;;;;18.96;38.76;100851.94;5052751;28;20076;-78
2021/12/01 02:59:20;;;;;;;5.45;4.07;;;;;;;18.96;38.78;100855.47;5053200;28;20477;-78
2021/12/01 03:01:48;;;;;;;5.07;3.83;;;;;;;18.96;39.16;100844.75;5051664;28;20053;-78
2021/12/01 03:04:16;;;;;;;6.97;3.60;;;;;;;18.95;38.95;100848.38;5052975;28;20041;-78
2021/12/01 03:06:45;;;;;;;7.28;3.75;;;;;;;18.95;39.09;100843.03;5052734;28;20045;-78
2021/12/01 03:09:14;;;;;;;6.82;3.30;;;;;;;18.95;39.27;100844.84;5052695;28;20045;-78
2021/12/01 03:11:43;;;;;;;5.53;3.63;;;;;;;18.95;38.94;100839.50;5052623;28;20207;-78
2021/12/01 03:14:14;;;;;;;5.35;3.95;;;;;;;18.94;39.07;100835.97;5052885;28;20048;-79
2021/12/01 03:16:41;;;;;;;5.03;3.50;;;;;;;18.95;39.08;100839.50;5051152;28;20060;-78
2021/12/01 03:19:09;;;;;;;4.93;3.85;;;;;;;18.93;39.11;100828.91;5052812;28;20052;-79
2021/12/01 03:21:39;;;;;;;4.38;3.45;;;;;;;18.94;39.18;100827.06;5052511;28;20485;-78
2021/12/01 03:24:07;;;;;;;7.13;3.92;;;;;;;18.94;39.19;100816.34;5051320;28;20048;-78
2021/12/01 03:26:36;;;;;;;4.50;3.67;;;;;;;18.90;39.32;100823.78;5053185;28;20045;-79
2021/12/01 03:29:06;;;;;;;4.72;3.50;;;;;;;18.91;39.23;100817.44;5053205;28;20052;-79
2021/12/01 03:31:34;;;;;;;6.07;3.38;;;;;;;18.91;39.18;100824.63;5052401;28;20388;-78
2021/12/01 03:34:03;;;;;;;6.25;3.97;;;;;;;18.92;39.29;100823.66;5035030;28;20045;-78
2021/12/01 03:36:31;;;;;;;7.45;3.90;;;;;;;18.91;39.20;100817.44;5051403;28;20408;-79
2021/12/01 03:38:58;;;;;;;4.50;3.58;;;;;;;18.91;39.20;100805.84;5053126;28;20060;-78
2021/12/01 03:41:26;;;;;;;5.55;3.28;;;;;;;18.92;39.19;100810.22;5051965;28;20052;-79
2021/12/01 03:43:53;;;;;;;5.38;3.92;;;;;;;18.91;38.99;100816.59;5050808;28;20045;-79
2021/12/01 03:46:23;;;;;;;4.35;3.28;;;;;;;18.91;38.77;100828.16;5052599;28;20053;-78
2021/12/01 03:48:50;;;;;;;4.70;3.67;;;;;;;18.91;38.96;100825.47;5056137;28;20049;-78
2021/12/01 03:51:22;;;;;;;5.32;3.40;;;;;;;18.91;38.80;100824.63;5056533;28;20053;-78
2021/12/01 03:53:50;;;;;;;4.55;2.92;;;;;;;18.91;38.94;100819.28;5055809;28;20044;-78
2021/12/01 03:56:19;;;;;;;5.22;3.53;;;;;;;18.92;38.88;100826.31;5056518;28;20068;-78
2021/12/01 03:58:47;;;;;;;5.68;3.72;;;;;;;18.93;38.97;100825.38;5056060;28;20044;-78
2021/12/01 04:01:15;;;;;;;5.15;3.33;;;;;;;18.92;39.01;100827.22;5054292;28;20060;-78
2021/12/01 04:03:43;;;;;;;4.97;2.95;;;;;;;18.92;38.90;100823.66;5054901;28;20471;-78
2021/12/01 04:06:11;;;;;;;6.63;4.45;;;;;;;18.91;38.93;100827.31;5055185;28;20049;-79
2021/12/01 04:08:38;;;;;;;5.95;3.50;;;;;;;18.92;38.96;100820.97;5055997;28;20044;-78
2021/12/01 04:11:06;;;;;;;5.75;3.47;;;;;;;18.92;38.89;100815.59;5055792;28;20051;-78
2021/12/01 04:13:33;;;;;;;4.28;2.92;;;;;;;18.92;39.02;100812.91;5055551;28;20045;-78
2021/12/01 04:16:01;;;;;;;6.40;3.17;;;;;;;18.91;39.09;100808.53;5055928;28;20056;-79
2021/12/01 04:18:28;;;;;;;7.25;3.40;;;;;;;18.92;39.03;100807.56;5055331;28;20049;-78
2021/12/01 04:20:56;;;;;;;5.40;3.25;;;;;;;18.92;39.15;100818.28;5055400;28;20045;-78
2021/12/01 04:23:23;;;;;;;4.47;3.00;;;;;;;18.91;39.12;100809.38;5055605;28;20045;-78
2021/12/01 04:25:51;;;;;;;4.50;2.90;;;;;;;18.91;39.05;100811.22;5055188;28;20045;-78
2021/12/01 04:28:19;;;;;;;6.35;3.05;;;;;;;18.91;39.15;100812.06;5055419;28;20056;-78
2021/12/01 04:30:46;;;;;;;4.70;3.42;;;;;;;18.90;39.23;100817.56;5053795;28;20405;-78
2021/12/01 04:33:14;;;;;;;4.32;3.42;;;;;;;18.91;39.11;100830.00;5055118;28;20049;-79
2021/12/01 04:35:42;;;;;;;6.05;3.10;;;;;;;18.90;39.14;100820.25;5055787;28;20469;-79
2021/12/01 04:38:10;;;;;;;5.68;3.20;;;;;;;18.90;39.36;100828.31;5054598;28;20059;-78
2021/12/01 04:40:38;;;;;;;4.00;3.13;;;;;;;18.89;39.36;100818.56;5053686;28;20063;-78
2021/12/01 04:43:06;;;;;;;6.30;3.45;;;;;;;18.88;39.26;100815.03;5055099;28;20056;-78
2021/12/01 04:45:36;;;;;;;4.90;3.22;;;;;;;18.88;39.40;100809.66;5054575;28;20057;-79
2021/12/01 04:48:04;;;;;;;4.03;2.72;;;;;;;18.87;39.35;100807.94;5055390;28;20053;-78
2021/12/01 04:50:31;;;;;;;4.22;2.85;;;;;;;18.87;39.30;100807.94;5053381;28;20084;-78
2021/12/01 04:52:59;;;;;;;3.72;2.75;;;;;;;18.87;39.48;100807.09;5054786;28;20048;-79
2021/12/01 04:55:27;;;;;;;4.68;3.10;;;;;;;18.85;39.23;100801.88;5054249;28;20090;-79
2021/12/01 04:57:55;;;;;;;4.75;3.38;;;;;;;18.86;39.32;100805.41;5054033;28;20405;-79
2021/12/01 05:00:28;;;;;;;4.72;2.83;;;;;;;18.86;39.32;100805.41;5054411;28;20048;-79
2021/12/01 05:02:56;;;;;;;4.60;2.80;;;;;;;18.85;39.47;100809.91;5055209;28;20052;-78
2021/12/01 05:05:43;;;;;;;5.97;2.88;;;;;;;18.85;39.41;100806.38;5055224;28;20041;-78
2021/12/01 05:08:11;;;;;;;5.18;3.05;;;;;;;18.84;39.31;100812.72;5054447;28;20056;-78
2021/12/01 05:10:38;;;;;;;6.32;2.95;;;;;;;18.84;39.44;100801.97;5054712;28;20044;-78
2021/12/01 05:13:05;;;;;;;4.18;2.83;;;;;;;18.84;39.45;100802.84;5054225;28;20136;-79
2021/12/01 05:15:33;;;;;;;3.40;2.70;;;;;;;18.84;39.40;100810.03;5053585;28;20473;-79
2021/12/01 05:18:00;;;;;;;6.22;3.03;;;;;;;18.83;39.41;100800.28;5054259;28;20045;-79
2021/12/01 05:20:28;;;;;;;3.60;2.67;;;;;;;18.83;39.35;100798.44;5054688;28;20053;-78
2021/12/01 05:22:55;;;;;;;3.92;2.63;;;;;;;18.83;39.27;100800.28;5052953;28;20037;-78
2021/12/01 05:25:22;;;;;;;3.88;2.67;;;;;;;18.83;39.46;100805.66;5052534;28;20045;-78
2021/12/01 05:27:50;;;;;;;4.07;3.00;;;;;;;18.82;39.38;100812.84;5054090;28;20051;-78
2021/12/01 05:30:19;;;;;;;4.45;2.65;;;;;;;18.82;39.37;100803.97;5054227;28;20052;-79
2021/12/01 05:32:47;;;;;;;4.90;2.90;;;;;;;18.82;39.55;100812.00;5053976;28;20045;-79
2021/12/01 05:35:15;;;;;;;4.07;2.78;;;;;;;18.82;39.15;100810.16;5052618;28;20056;-79
2021/12/01 05:37:42;;;;;;;4.80;2.70;;;;;;;18.81;39.56;100815.69;5054405;28;20479;-79
2021/12/01 05:40:10;;;;;;;4.20;2.88;;;;;;;18.81;39.45;100813.00;5052372;28;20049;-79
2021/12/01 05:42:37;;;;;;;5.15;2.67;;;;;;;18.79;39.53;100810.41;5053717;28;20045;-79
2021/12/01 05:45:06;;;;;;;5.13;3.00;;;;;;;18.78;39.62;100809.56;5053549;28;20076;-78
2021/12/01 05:47:33;;;;;;;5.70;2.83;;;;;;;18.78;39.57;100811.41;5053808;28;20128;-78
2021/12/01 05:50:00;;;;;;;6.15;2.42;;;;;;;18.79;39.59;100802.38;5053892;28;20049;-79
2021/12/01 05:52:28;;;;;;;4.63;2.95;;;;;;;18.77;39.53;100799.84;5053898;28;20049;-79
2021/12/01 05:54:55;;;;;;;5.50;2.50;;;;;;;18.77;39.43;100802.50;5053846;28;20052;-79
2021/12/01 05:57:23;;;;;;;5.38;2.38;;;;;;;18.77;39.74;100807.88;5052652;28;20052;-80
2021/12/01 05:59:50;;;;;;;4.25;2.72;;;;;;;18.76;39.69;100806.19;5053464;28;20056;-80
2021/12/01 06:02:18;;;;;;;3.80;2.60;;;;;;;18.77;39.68;100801.66;5054069;28;20049;-79
2021/12/01 06:04:47;;;;;;;3.95;2.85;;;;;;;18.76;39.65;100806.19;5053302;28;20037;-79
2021/12/01 06:07:15;;;;;;;4.05;2.78;;;;;;;18.77;39.62;100809.72;5053289;28;20048;-79
2021/12/01 06:09:42;;;;;;;4.38;2.95;;;;;;;18.76;39.66;100800.81;5052791;28;20052;-79
2021/12/01 06:12:13;;;;;;;4.47;2.47;;;;;;;18.77;39.63;100804.34;5053687;28;20481;-79
2021/12/01 06:14:42;;;;;;;3.70;2.58;;;;;;;18.77;39.65;100807.03;5053303;28;20052;-79
2021/12/01 06:17:11;;;;;;;4.75;2.72;;;;;;;18.76;39.23;100800.81;5053126;28;20045;-79
2021/12/01 06:19:38;;;;;;;5.63;3.08;;;;;;;18.76;39.37;100799.97;5052045;28;20504;-78
2021/12/01 06:22:07;;;;;;;4.97;3.45;;;;;;;18.77;39.38;100804.34;5053149;28;20037;-79
2021/12/01 06:24:35;;;;;;;6.20;3.78;;;;;;;18.75;39.56;100793.72;5053155;28;20052;-78
2021/12/01 06:27:04;;;;;;;5.18;3.38;;;;;;;18.76;39.66;100808.03;5053276;28;20048;-79
2021/12/01 06:29:33;;;;;;;4.80;3.13;;;;;;;18.76;39.52;100811.53;5053073;28;20041;-80
2021/12/01 06:32:00;;;;;;;4.22;3.25;;;;;;;18.75;39.47;100806.28;5052973;28;20155;-79
2021/12/01 06:34:27;;;;;;;5.88;2.88;;;;;;;18.76;39.52;100810.69;5052947;28;20493;-79
2021/12/01 06:36:55;;;;;;;5.05;3.55;;;;;;;18.76;39.53;100814.22;5053688;28;20048;-79
2021/12/01 06:39:22;;;;;;;5.00;3.10;;;;;;;18.75;39.57;100804.47;5052855;28;20060;-80
2021/12/01 06:41:50;;;;;;;4.47;3.58;;;;;;;18.75;39.55;100800.94;5051817;28;20064;-80
2021/12/01 06:44:17;;;;;;;5.30;3.10;;;;;;;18.75;39.65;100799.09;5053154;28;20408;-80
2021/12/01 06:46:45;;;;;;;5.85;3.35;;;;;;;18.75;39.67;100799.09;5053141;28;20041;-78
2021/12/01 06:49:12;;;;;;;6.38;3.58;;;;;;;18.75;39.56;100804.47;5051733;28;20045;-79
2021/12/01 06:51:39;;;;;;;4.85;3.22;;;;;;;18.75;39.70;100811.66;5051801;28;20048;-78
2021/12/01 06:54:07;;;;;;;5.00;3.25;;;;;;;18.75;39.53;100807.13;5052926;28;20056;-78
2021/12/01 06:56:34;;;;;;;6.97;3.90;;;;;;;18.75;39.54;100804.47;5052772;28;20393;-78
2021/12/01 06:59:03;;;;;;;6.38;3.50;;;;;;;18.74;39.69;100813.50;5052396;28;20045;-78
2021/12/01 07:01:30;;;;;;;7.05;3.70;;;;;;;18.74;39.63;100820.69;5052090;28;20049;-78
2021/12/01 07:03:58;;;;;;;8.32;4.18;;;;;;;18.75;39.70;100815.19;5053161;28;20397;-78
2021/12/01 07:06:25;;;;;;;6.85;3.58;;;;;;;18.75;39.50;100817.03;5053433;28;20045;-78
2021/12/01 07:08:54;;;;;;;5.82;3.63;;;;;;;18.74;39.58;100813.50;5052854;28;20052;-78
2021/12/01 07:11:22;;;;;;;7.63;3.40;;;;;;;18.73;39.53;100811.78;5053673;28;20045;-78
2021/12/01 07:13:49;;;;;;;9.57;3.80;;;;;;;18.73;39.75;100809.13;5053882;28;20045;-79
2021/12/01 07:16:17;;;;;;;7.95;3.08;;;;;;;18.74;39.64;100804.59;5053359;28;20041;-78
2021/12/01 07:18:44;;;;;;;6.25;3.45;;;;;;;18.71;39.68;100800.34;5053377;28;20060;-78
2021/12/01 07:21:12;;;;;;;9.30;3.45;;;;;;;18.73;39.72;100808.25;5052798;28;20408;-78
2021/12/01 07:23:39;;;;;;;6.35;3.58;;;;;;;18.73;39.80;100800.22;5056970;28;20056;-79
2021/12/01 07:26:07;;;;;;;5.75;3.65;;;;;;;18.72;39.61;100804.75;5056903;28;20477;-78
2021/12/01 07:28:35;;;;;;;5.55;3.40;;;;;;;18.71;39.74;100803.00;5054896;28;20057;-78
2021/12/01 07:31:02;;;;;;;6.20;3.67;;;;;;;18.71;39.73;100805.69;5056464;28;20044;-78
2021/12/01 07:33:30;;;;;;;6.72;3.60;;;;;;;18.71;39.72;100802.16;5056886;28;20048;-78
2021/12/01 07:35:58;;;;;;;4.90;3.22;;;;;;;18.71;39.91;100815.56;5056367;28;20404;-78
2021/12/01 07:38:25;;;;;;;9.02;3.97;;;;;;;18.70;40.04;100817.41;5056393;28;20045;-78
2021/12/01 07:40:53;;;;;;;5.35;3.30;;;;;;;18.69;40.02;100810.31;5056043;28;20049;-77
2021/12/01 07:43:20;;;;;;;6.90;3.58;;;;;;;18.70;40.03;100817.41;5054714;28;20432;-78
2021/12/01 07:45:48;;;;;;;6.47;3.67;;;;;;;18.69;40.23;100818.38;5056106;28;20048;-78
2021/12/01 07:48:15;;;;;;;7.18;4.05;;;;;;;18.70;40.92;100813.88;5054682;28;20053;-78
2021/12/01 07:50:43;;;;;;;10.90;3.83;;;;;;;18.70;41.29;100811.19;5055999;28;20048;-78
2021/12/01 07:53:10;;;;;;;4.50;3.35;;;;;;;18.71;41.07;100812.88;5054931;28;20045;-79
2021/12/01 07:55:39;;;;;;;13.15;4.03;;;;;;;18.71;41.05;100813.75;5055835;28;20481;-78
2021/12/01 07:58:06;;;;;;;11.85;4.82;;;;;;;18.71;40.89;100811.06;5055100;28;20044;-78
2021/12/01 08:00:34;;;;;;;10.55;3.90;;;;;;;18.71;40.98;100804.84;5056244;28;20392;-78
2021/12/01 08:03:02;;;;;;;8.65;4.75;;;;;;;18.72;40.73;100799.38;5055245;28;20040;-78
2021/12/01 08:05:30;;;;;;;9.98;3.92;;;;;;;18.74;40.64;100796.56;5056003;28;20404;-78
2021/12/01 08:07:58;;;;;;;8.95;4.53;;;;;;;18.75;40.82;100793.72;5068600;28;20052;-82
2021/12/01 08:10:25;;;;;;;12.48;4.53;;;;;;;18.78;41.52;100801.53;5075985;28;20056;-80
2021/12/01 08:12:53;;;;;;;9.95;3.83;;;;;;;18.80;41.72;100800.53;5075837;28;20381;-81
2021/12/01 08:15:39;;;;;;;7.85;3.85;;;;;;;18.78;41.71;100801.53;5076059;28;20044;-81
2021/12/01 08:18:06;;;;;;;10.90;4.03;;;;;;;18.80;41.85;100804.09;5074002;28;20057;-81
2021/12/01 08:20:36;;;;;;;9.40;4.22;;;;;;;18.78;41.66;100798.84;5075536;28;20041;-81
2021/12/01 08:23:04;;;;;;;9.35;4.60;;;;;;;18.79;41.50;100805.06;5075381;28;20055;-82
2021/12/01 08:25:31;;;;;;;8.77;4.78;;;;;;;18.78;41.56;100804.22;5075666;28;20044;-81
2021/12/01 08:28:01;;;;;;;9.25;4.50;;;;;;;18.78;41.24;100800.69;5075695;28;20048;-82
2021/12/01 08:30:31;;;;;;;10.50;4.57;;;;;;;18.78;41.17;100812.25;5075111;28;20040;-81
2021/12/01 08:33:00;;;;;;;9.60;4.68;;;;;;;18.79;40.88;100815.78;5076309;28;20040;-79
2021/12/01 08:35:27;;;;;;;10.50;4.80;;;;;;;18.77;40.45;100818.59;5074848;28;20071;-82
2021/12/01 08:37:55;;;;;;;10.55;5.05;;;;;;;18.78;40.36;100814.94;5075008;28;20044;-80
2021/12/01 08:40:23;;;;;;;10.60;4.50;;;;;;;18.77;40.40;100815.91;5074372;28;20055;-78
2021/12/01 08:42:52;;;;;;;11.38;5.07;;;;;;;18.77;39.88;100817.75;5073548;28;20500;-79
2021/12/01 08:45:20;;;;;;;8.93;5.22;;;;;;;18.77;39.75;100817.75;5073051;28;20056;-79
2021/12/01 08:47:49;;;;;;;11.27;4.22;;;;;;;18.77;39.45;100815.06;5075398;28;20037;-79
2021/12/01 08:50:18;;;;;;;9.90;5.10;;;;;;;18.77;39.53;100813.25;5074763;28;20049;-78
2021/12/01 08:52:47;;;;;;;9.07;4.32;;;;;;;18.77;39.50;100810.56;5073703;28;20052;-79
2021/12/01 08:55:15;;;;;;;9.68;4.55;;;;;;;18.76;39.44;100816.91;5073638;28;20053;-78
2021/12/01 08:58:03;;;;;;;9.68;5.07;;;;;;;18.77;39.46;100805.19;5074622;28;20052;-78
2021/12/01 09:00:33;;;;;;;8.55;4.63;;;;;;;18.77;39.44;100804.34;5075151;28;20055;-78
2021/12/01 09:03:01;;;;;;;7.30;4.20;;;;;;;18.77;39.14;100818.59;5075128;28;20040;-79
2021/12/01 09:05:28;;;;;;;8.98;4.20;;;;;;;18.77;39.22;100815.91;5075243;28;20048;-78
2021/12/01 09:07:56;;;;;;;8.27;4.20;;;;;;;18.76;39.19;100811.53;5073412;28;20048;-79
2021/12/01 09:10:23;;;;;;;7.90;4.80;;;;;;;18.77;39.19;100807.88;5074895;28;20048;-79
2021/12/01 09:12:50;;;;;;;7.90;4.60;;;;;;;18.77;39.27;100804.34;5075130;28;20048;-79
2021/12/01 09:15:18;;;;;;;9.30;4.97;;;;;;;18.77;39.11;100804.34;5074906;28;20044;-79
2021/12/01 09:17:46;;;;;;;8.18;4.55;;;;;;;18.77;39.17;100807.03;5074163;28;20044;-78
2021/12/01 09:20:13;;;;;;;9.30;4.22;;;;;;;18.77;39.14;100807.88;5073217;28;20411;-78
2021/12/01 09:22:41;;;;;;;8.18;4.25;;;;;;;18.77;39.05;100802.50;5073297;28;20392;-79
2021/12/01 09:25:09;;;;;;;7.72;3.95;;;;;;;18.77;39.05;100793.63;5074212;28;20051;-78
2021/12/01 09:27:36;;;;;;;7.70;4.57;;;;;;;18.77;39.08;100789.09;5074443;28;20040;-79
2021/12/01 09:30:05;;;;;;;6.38;4.20;;;;;;;18.78;39.13;100792.63;5074614;28;20040;-78
2021/12/01 09:32:37;;;;;;;7.80;3.92;;;;;;;18.77;39.26;100788.25;5073856;28;20059;-78
2021/12/01 09:35:08;;;;;;;6.40;3.40;;;;;;;18.77;38.95;100796.31;5074437;28;20041;-79
2021/12/01 09:37:36;;;;;;;6.75;4.07;;;;;;;18.77;39.10;100801.66;5074614;28;20044;-78
2021/12/01 09:40:12;;;;;;;7.07;3.75;;;;;;;18.77;39.20;100802.50;5074561;28;20048;-79
2021/12/01 09:42:48;;;;;;;7.43;4.22;;;;;;;18.77;39.06;100807.88;5072669;28;20071;-78
2021/12/01 09:45:18;;;;;;;5.45;3.80;;;;;;;18.77;39.06;100807.03;5071812;28;20056;-79
2021/12/01 09:47:47;;;;;;;8.10;4.05;;;;;;;18.77;38.88;100807.03;5071526;28;20542;-80
2021/12/01 09:50:15;;;;;;;7.28;3.65;;;;;;;18.78;39.12;100803.34;5071569;28;20123;-83
2021/12/01 09:52:43;;;;;;;11.80;4.00;;;;;;;18.77;40.16;100799.84;5074139;28;20040;-81
2021/12/01 09:55:13;;;;;;;9.95;4.35;;;;;;;18.78;40.00;100798.84;5072479;28;20059;-81
2021/12/01 09:58:05;;;;;;;8.90;3.72;;;;;;;18.78;40.25;100804.22;5074162;28;20063;-81
2021/12/01 10:00:35;;;;;;;11.57;3.72;;;;;;;18.78;40.16;100796.16;5072063;28;20518;-81
2021/12/01 10:03:05;;;;;;;8.45;4.43;;;;;;;18.79;40.15;100788.97;5073487;28;20044;-80
2021/12/01 10:06:01;;;;;;;5.85;3.97;;;;;;;18.78;39.99;100788.13;5072996;28;20055;-81
2021/12/01 10:08:34;;;;;;;6.38;4.00;;;;;;;18.78;39.87;100782.75;5072882;28;20047;-80
2021/12/01 10:11:23;;;;;;;7.97;3.95;;;;;;;18.78;39.72;100782.75;5073555;28;20492;-80
2021/12/01 10:13:54;;;;;;;9.73;3.50;;;;;;;18.77;39.80;100764.97;5056184;28;20048;-80
2021/12/01 10:16:24;;;;;;;6.45;4.00;;;;;;;18.77;39.88;100756.91;5073675;28;20075;-81
2021/12/01 10:18:55;;;;;;;10.52;3.75;;;;;;;18.77;39.76;100759.59;5072189;28;20393;-82
2021/12/01 10:21:29;;;;;;;6.28;3.58;;;;;;;18.77;39.98;100743.50;5073454;28;20048;-81
2021/12/01 10:24:07;;;;;;;5.32;3.78;;;;;;;18.78;37.71;100742.53;5072599;28;20412;-80
2021/12/01 10:26:38;;;;;;;7.20;4.30;;;;;;;18.69;36.04;100727.19;5073265;28;20055;-79
2021/12/01 10:29:09;;;;;;;6.43;3.33;;;;;;;18.68;38.75;100728.19;5073066;28;20047;-80
2021/12/01 10:31:46;;;;;;;8.88;3.70;;;;;;;18.68;38.91;100717.44;5073370;28;20052;-79
2021/12/01 10:34:26;;;;;;;7.90;3.92;;;;;;;18.68;38.77;100712.09;5073114;28;20041;-79
2021/12/01 10:37:29;;;;;;;5.97;3.47;;;;;;;18.70;38.65;100701.25;5073135;28;20041;-79
2021/12/01 10:40:24;;;;;;;6.22;3.40;;;;;;;18.71;38.41;100703.78;5073336;28;20378;-81
2021/12/01 10:43:04;;;;;;;5.88;3.40;;;;;;;18.71;38.39;100698.44;5072370;28;20377;-80
2021/12/01 10:45:39;;;;;;;5.30;3.45;;;;;;;18.73;38.74;100688.44;5072907;28;20060;-81
2021/12/01 10:48:09;;;;;;;9.05;3.17;;;;;;;18.74;38.84;100684.75;5073232;28;20047;-81
2021/12/01 10:50:40;;;;;;;4.45;3.10;;;;;;;18.74;39.01;100674.03;5073352;28;20050;-81
2021/12/01 10:53:18;;;;;;;7.35;3.97;;;;;;;18.75;39.14;100670.38;5072174;28;20045;-81
2021/12/01 10:55:52;;;;;;;5.80;3.03;;;;;;;18.75;38.99;100670.38;5073381;28;20056;-80
2021/12/01 10:58:34;;;;;;;4.05;3.13;;;;;;;18.76;39.23;100666.72;5077028;28;20447;-78
2021/12/01 11:01:03;;;;;;;5.07;3.38;;;;;;;18.77;39.17;100665.72;5076895;28;20044;-79
2021/12/01 11:03:32;;;;;;;6.60;3.28;;;;;;;18.78;39.03;100664.75;5077198;28;20067;-80
2021/12/01 11:06:19;;;;;;;6.57;3.30;;;;;;;18.79;39.17;100654.88;5077142;28;20452;-80
2021/12/01 11:08:55;;;;;;;5.40;2.90;;;;;;;18.80;38.98;100661.06;5077057;28;20044;-78
2021/12/01 11:11:25;;;;;;;5.40;3.22;;;;;;;18.79;38.97;100646.81;5075761;28;20107;-79
2021/12/01 11:14:11;;;;;;;5.50;2.90;;;;;;;18.81;38.87;100649.38;5076717;28;20048;-80
2021/12/01 11:16:41;;;;;;;7.13;3.40;;;;;;;18.80;38.96;100653.91;5076988;28;20048;-80
2021/12/01 11:19:10;;;;;;;5.40;2.65;;;;;;;18.81;39.24;100652.06;5075789;28;20049;-80
2021/12/01 11:21:39;;;;;;;4.10;2.72;;;;;;;18.80;39.31;100640.50;5077169;28;20053;-80
2021/12/01 11:24:10;;;;;;;5.00;2.33;;;;;;;18.81;39.59;100636.81;5076593;28;20043;-83
2021/12/01 11:26:45;;;;;;;4.28;3.10;;;;;;;18.81;39.21;100639.50;5077003;28;20049;-79
2021/12/01 11:29:32;;;;;;;4.63;3.35;;;;;;;18.81;38.50;100627.94;5075480;28;20057;-80
2021/12/01 11:32:00;;;;;;;7.13;3.83;;;;;;;18.74;34.23;100615.03;5077285;28;20044;-80
2021/12/01 11:34:27;;;;;;;8.20;4.65;;;;;;;18.68;34.60;100610.19;5075249;28;20040;-79
2021/12/01 11:36:54;;;;;;;4.50;3.85;;;;;;;18.67;37.13;100599.59;5074041;28;20048;-79
2021/12/01 11:39:26;;;;;;;4.88;3.25;;;;;;;18.67;37.55;100587.03;5064633;28;20045;-89
2021/12/01 11:41:54;;;;;;;5.65;3.60;;;;;;;18.67;37.70;100581.66;5056262;28;20053;-79